createdAt,value
2023-02-27T00:00:17.115Z,981.14
2023-02-27T00:00:47.237Z,981.04
2023-02-27T00:01:19.015Z,981.04
2023-02-27T00:01:50.968Z,980.93
2023-02-27T00:02:23.136Z,980.93
2023-02-27T00:02:55.277Z,981.04
2023-02-27T00:03:26.917Z,981.04
2023-02-27T00:03:58.958Z,980.83
2023-02-27T00:04:31.022Z,980.83
2023-02-27T00:05:03.570Z,981.04
2023-02-27T00:05:34.836Z,981.04
2023-02-27T00:06:06.810Z,981.04
2023-02-27T00:06:38.907Z,981.04
2023-02-27T00:07:10.976Z,980.83
2023-02-27T00:07:42.682Z,980.83
2023-02-27T00:08:14.876Z,980.83
2023-02-27T00:08:46.956Z,980.83
2023-02-27T00:09:18.763Z,980.83
2023-02-27T00:09:50.533Z,980.83
2023-02-27T00:10:22.924Z,980.83
2023-02-27T00:10:54.688Z,980.83
2023-02-27T00:11:27.232Z,980.83
2023-02-27T00:11:58.540Z,980.83
2023-02-27T00:12:14.667Z,980.83
2023-02-27T00:12:46.740Z,980.83
2023-02-27T00:13:30.551Z,980.83
2023-02-27T00:14:03.306Z,980.73
2023-02-27T00:14:34.501Z,980.73
2023-02-27T00:15:07.209Z,980.63
2023-02-27T00:15:38.569Z,980.63
2023-02-27T00:16:12.817Z,980.83
2023-02-27T00:16:42.382Z,980.83
2023-02-27T00:16:58.776Z,981.04
2023-02-27T00:17:42.352Z,981.04
2023-02-27T00:18:14.359Z,981.04
2023-02-27T00:18:46.639Z,980.83
2023-02-27T00:19:18.341Z,980.83
2023-02-27T00:19:50.273Z,980.73
2023-02-27T00:20:22.518Z,980.73
2023-02-27T00:20:54.351Z,980.73
2023-02-27T00:21:26.890Z,980.73
2023-02-27T00:21:58.270Z,980.73
2023-02-27T00:22:30.263Z,980.73
2023-02-27T00:23:02.590Z,980.83
2023-02-27T00:23:33.974Z,980.83
2023-02-27T00:24:06.168Z,980.73
2023-02-27T00:24:38.232Z,980.73
2023-02-27T00:25:10.466Z,980.63
2023-02-27T00:25:42.041Z,980.63
2023-02-27T00:26:14.044Z,980.73
2023-02-27T00:26:45.977Z,980.83
2023-02-27T00:27:18.028Z,980.83
2023-02-27T00:27:49.837Z,980.73
2023-02-27T00:28:21.803Z,980.73
2023-02-27T00:28:53.952Z,980.73
2023-02-27T00:29:26.282Z,980.73
2023-02-27T00:29:57.869Z,980.73
2023-02-27T00:30:14.766Z,980.73
2023-02-27T00:30:45.650Z,980.53
2023-02-27T00:31:30.202Z,980.53
2023-02-27T00:32:02.513Z,980.63
2023-02-27T00:32:33.701Z,980.63
2023-02-27T00:33:05.984Z,980.83
2023-02-27T00:33:37.974Z,980.83
2023-02-27T00:34:09.560Z,980.63
2023-02-27T00:34:41.878Z,980.63
2023-02-27T00:35:14.036Z,980.93
2023-02-27T00:35:45.818Z,980.73
2023-02-27T00:36:17.858Z,980.73
2023-02-27T00:36:49.638Z,981.04
2023-02-27T00:37:21.476Z,981.04
2023-02-27T00:37:53.676Z,980.83
2023-02-27T00:38:25.682Z,980.83
2023-02-27T00:38:57.704Z,980.93
2023-02-27T00:39:13.681Z,980.93
2023-02-27T00:39:57.606Z,980.93
2023-02-27T00:40:29.776Z,980.93
2023-02-27T00:41:01.441Z,980.73
2023-02-27T00:41:33.260Z,980.73
2023-02-27T00:42:05.558Z,980.83
2023-02-27T00:42:37.382Z,980.83
2023-02-27T00:43:09.379Z,980.83
2023-02-27T00:43:41.270Z,980.83
2023-02-27T00:44:13.223Z,980.93
2023-02-27T00:44:45.406Z,980.93
2023-02-27T00:45:17.955Z,980.93
2023-02-27T00:45:49.122Z,981.04
2023-02-27T00:46:21.174Z,981.04
2023-02-27T00:46:53.253Z,981.04
2023-02-27T00:47:25.150Z,981.04
2023-02-27T00:47:57.436Z,980.73
2023-02-27T00:48:29.057Z,980.73
2023-02-27T00:49:01.153Z,980.73
2023-02-27T00:49:32.899Z,980.73
2023-02-27T00:50:05.377Z,980.93
2023-02-27T00:50:36.863Z,980.93
2023-02-27T00:51:09.097Z,980.93
2023-02-27T00:51:41.211Z,980.93
2023-02-27T00:52:12.834Z,981.04
2023-02-27T00:52:28.999Z,981.04
2023-02-27T00:53:00.841Z,981.14
2023-02-27T00:53:45.183Z,980.73
2023-02-27T00:54:16.838Z,980.73
2023-02-27T00:54:48.750Z,980.93
2023-02-27T00:55:21.059Z,980.93
2023-02-27T00:55:52.934Z,980.93
2023-02-27T00:56:24.632Z,980.93
2023-02-27T00:56:56.944Z,980.83
2023-02-27T00:57:12.804Z,980.83
2023-02-27T00:57:56.915Z,980.63
2023-02-27T00:58:28.890Z,980.63
2023-02-27T00:59:00.582Z,980.73
2023-02-27T00:59:32.599Z,980.73
2023-02-27T01:00:08.607Z,980.83
2023-02-27T01:00:36.774Z,980.83
2023-02-27T01:01:08.636Z,980.83
2023-02-27T01:01:40.550Z,980.83
2023-02-27T01:02:12.435Z,980.73
2023-02-27T01:02:44.666Z,980.73
2023-02-27T01:03:16.392Z,980.83
2023-02-27T01:03:48.442Z,980.83
2023-02-27T01:04:20.437Z,980.83
2023-02-27T01:04:52.469Z,980.73
2023-02-27T01:05:24.464Z,980.73
2023-02-27T01:05:56.541Z,981.14
2023-02-27T01:06:12.428Z,981.14
2023-02-27T01:06:44.362Z,981.14
2023-02-27T01:07:28.415Z,980.83
2023-02-27T01:08:00.193Z,980.63
2023-02-27T01:08:32.339Z,980.63
2023-02-27T01:09:04.265Z,980.83
2023-02-27T01:09:36.338Z,980.83
2023-02-27T01:10:08.508Z,980.83
2023-02-27T01:10:40.159Z,980.83
2023-02-27T01:10:56.726Z,980.63
2023-02-27T01:11:40.077Z,980.63
2023-02-27T01:12:12.105Z,980.83
2023-02-27T01:12:44.004Z,980.83
2023-02-27T01:13:16.034Z,980.83
2023-02-27T01:13:48.213Z,980.93
2023-02-27T01:14:20.006Z,980.93
2023-02-27T01:14:51.764Z,980.83
2023-02-27T01:15:24.285Z,980.83
2023-02-27T01:15:56.119Z,980.83
2023-02-27T01:16:28.079Z,980.83
2023-02-27T01:16:59.883Z,981.04
2023-02-27T01:17:31.890Z,981.04
2023-02-27T01:18:04.079Z,980.73
2023-02-27T01:18:36.040Z,980.73
2023-02-27T01:19:07.758Z,980.83
2023-02-27T01:19:39.650Z,980.83
2023-02-27T01:19:56.237Z,980.83
2023-02-27T01:20:28.080Z,980.83
2023-02-27T01:20:43.770Z,980.83
2023-02-27T01:21:15.762Z,980.63
2023-02-27T01:21:47.805Z,980.83
2023-02-27T01:22:19.624Z,980.83
2023-02-27T01:22:51.650Z,980.63
2023-02-27T01:23:23.523Z,980.63
2023-02-27T01:23:55.823Z,980.73
2023-02-27T01:24:11.900Z,980.73
2023-02-27T01:24:43.502Z,980.73
2023-02-27T01:25:27.900Z,980.73
2023-02-27T01:25:59.474Z,980.73
2023-02-27T01:26:31.398Z,980.73
2023-02-27T01:27:03.750Z,980.63
2023-02-27T01:27:35.724Z,980.63
2023-02-27T01:28:07.528Z,980.83
2023-02-27T01:28:39.429Z,980.83
2023-02-27T01:28:55.605Z,980.83
2023-02-27T01:29:39.547Z,980.83
2023-02-27T01:30:12.437Z,980.73
2023-02-27T01:30:43.202Z,980.73
2023-02-27T01:31:15.373Z,980.53
2023-02-27T01:31:47.471Z,980.73
2023-02-27T01:32:19.537Z,980.73
2023-02-27T01:32:51.081Z,980.83
2023-02-27T01:33:23.236Z,980.83
2023-02-27T01:33:55.519Z,980.53
2023-02-27T01:34:27.489Z,980.53
2023-02-27T01:34:59.076Z,980.63
2023-02-27T01:35:31.332Z,980.63
2023-02-27T01:36:04.030Z,980.73
2023-02-27T01:36:35.212Z,980.73
2023-02-27T01:37:06.915Z,980.53
2023-02-27T01:37:39.324Z,980.53
2023-02-27T01:37:55.340Z,980.63
2023-02-27T01:38:27.315Z,980.63
2023-02-27T01:38:43.012Z,980.63
2023-02-27T01:39:15.026Z,980.83
2023-02-27T01:39:47.289Z,980.53
2023-02-27T01:40:19.189Z,980.53
2023-02-27T01:40:50.926Z,980.73
2023-02-27T01:41:22.820Z,980.73
2023-02-27T01:41:54.909Z,980.73
2023-02-27T01:42:27.333Z,980.73
2023-02-27T01:42:59.063Z,980.73
2023-02-27T01:43:30.667Z,980.73
2023-02-27T01:44:03.499Z,980.63
2023-02-27T01:44:34.679Z,980.63
2023-02-27T01:45:07.916Z,980.73
2023-02-27T01:45:38.952Z,980.73
2023-02-27T01:45:55.332Z,980.73
2023-02-27T01:46:38.800Z,980.73
2023-02-27T01:47:10.768Z,980.83
2023-02-27T01:47:42.741Z,980.83
2023-02-27T01:48:14.567Z,980.83
2023-02-27T01:48:46.587Z,980.73
2023-02-27T01:49:18.652Z,980.73
2023-02-27T01:49:50.599Z,980.53
2023-02-27T01:50:22.620Z,980.53
2023-02-27T01:50:54.559Z,980.93
2023-02-27T01:51:26.978Z,980.93
2023-02-27T01:51:58.649Z,980.63
2023-02-27T01:52:30.247Z,980.63
2023-02-27T01:53:02.847Z,980.83
2023-02-27T01:53:34.331Z,980.83
2023-02-27T01:54:06.600Z,980.83
2023-02-27T01:54:38.502Z,980.83
2023-02-27T01:55:10.445Z,980.53
2023-02-27T01:55:42.331Z,980.53
2023-02-27T01:56:14.300Z,980.53
2023-02-27T01:56:46.163Z,980.63
2023-02-27T01:57:18.294Z,980.63
2023-02-27T01:57:50.238Z,980.63
2023-02-27T01:58:22.145Z,980.63
2023-02-27T01:58:54.165Z,980.53
2023-02-27T01:59:10.107Z,980.53
2023-02-27T01:59:42.074Z,980.53
2023-02-27T02:00:26.811Z,980.63
2023-02-27T02:00:58.220Z,980.63
2023-02-27T02:01:30.253Z,980.63
2023-02-27T02:02:02.883Z,980.53
2023-02-27T02:02:34.079Z,980.53
2023-02-27T02:03:06.093Z,980.73
2023-02-27T02:03:38.140Z,980.73
2023-02-27T02:03:54.182Z,980.43
2023-02-27T02:04:38.136Z,980.43
2023-02-27T02:05:10.181Z,980.63
2023-02-27T02:05:41.856Z,980.63
2023-02-27T02:06:13.699Z,980.53
2023-02-27T02:06:45.880Z,980.43
2023-02-27T02:07:17.953Z,980.43
2023-02-27T02:07:49.738Z,980.53
2023-02-27T02:08:21.607Z,980.53
2023-02-27T02:08:53.748Z,980.73
2023-02-27T02:09:25.936Z,980.73
2023-02-27T02:09:57.847Z,980.63
2023-02-27T02:10:29.837Z,980.63
2023-02-27T02:11:01.710Z,980.53
2023-02-27T02:11:33.596Z,980.53
2023-02-27T02:12:05.839Z,980.43
2023-02-27T02:12:37.499Z,980.43
2023-02-27T02:13:09.566Z,980.63
2023-02-27T02:13:41.682Z,980.63
2023-02-27T02:14:13.584Z,980.63
2023-02-27T02:14:45.625Z,980.53
2023-02-27T02:15:18.118Z,980.53
2023-02-27T02:15:49.424Z,980.63
2023-02-27T02:16:21.519Z,980.63
2023-02-27T02:16:53.468Z,980.63
2023-02-27T02:17:09.429Z,980.63
2023-02-27T02:17:41.261Z,980.63
2023-02-27T02:18:25.707Z,980.43
2023-02-27T02:18:58.899Z,980.63
2023-02-27T02:19:29.414Z,980.63
2023-02-27T02:20:01.666Z,980.43
2023-02-27T02:20:33.397Z,980.43
2023-02-27T02:21:06.733Z,980.63
2023-02-27T02:21:37.194Z,980.63
2023-02-27T02:22:09.323Z,980.63
2023-02-27T02:22:41.333Z,980.63
2023-02-27T02:23:13.020Z,980.32
2023-02-27T02:23:45.192Z,980.63
2023-02-27T02:24:17.299Z,980.63
2023-02-27T02:24:49.108Z,980.53
2023-02-27T02:25:21.450Z,980.53
2023-02-27T02:25:53.052Z,980.63
2023-02-27T02:26:09.230Z,980.63
2023-02-27T02:26:53.030Z,980.53
2023-02-27T02:27:25.192Z,980.53
2023-02-27T02:27:57.147Z,980.53
2023-02-27T02:28:28.896Z,980.53
2023-02-27T02:29:00.965Z,980.73
2023-02-27T02:29:32.931Z,980.73
2023-02-27T02:30:06.433Z,980.53
2023-02-27T02:30:37.053Z,980.53
2023-02-27T02:30:53.233Z,980.43
2023-02-27T02:31:25.080Z,980.43
2023-02-27T02:31:40.877Z,980.43
2023-02-27T02:32:12.814Z,980.73
2023-02-27T02:32:44.796Z,980.73
2023-02-27T02:33:17.191Z,980.63
2023-02-27T02:33:48.768Z,980.43
2023-02-27T02:34:20.579Z,980.43
2023-02-27T02:34:36.840Z,980.43
2023-02-27T02:35:20.826Z,980.53
2023-02-27T02:35:53.112Z,980.73
2023-02-27T02:36:24.840Z,980.73
2023-02-27T02:36:56.648Z,980.43
2023-02-27T02:37:28.596Z,980.43
2023-02-27T02:38:00.641Z,980.63
2023-02-27T02:38:32.572Z,980.63
2023-02-27T02:39:04.461Z,980.63
2023-02-27T02:39:36.534Z,980.63
2023-02-27T02:40:08.774Z,980.63
2023-02-27T02:40:40.479Z,980.63
2023-02-27T02:41:12.371Z,980.93
2023-02-27T02:41:44.346Z,980.93
2023-02-27T02:42:16.480Z,980.32
2023-02-27T02:42:48.420Z,980.32
2023-02-27T02:43:20.154Z,980.32
2023-02-27T02:43:52.138Z,980.43
2023-02-27T02:44:08.481Z,980.43
2023-02-27T02:44:52.230Z,980.53
2023-02-27T02:45:24.764Z,980.53
2023-02-27T02:45:56.335Z,980.63
2023-02-27T02:46:28.295Z,980.63
2023-02-27T02:47:00.128Z,980.32
2023-02-27T02:47:32.181Z,980.32
2023-02-27T02:48:04.641Z,980.53
2023-02-27T02:48:36.150Z,980.53
2023-02-27T02:49:08.168Z,980.53
2023-02-27T02:49:40.088Z,980.53
2023-02-27T02:50:12.284Z,980.43
2023-02-27T02:50:43.902Z,980.43
2023-02-27T02:51:16.178Z,980.63
2023-02-27T02:51:48.261Z,980.32
2023-02-27T02:52:19.817Z,980.32
2023-02-27T02:52:52.019Z,980.73
2023-02-27T02:53:25.033Z,980.73
2023-02-27T02:53:56.091Z,980.43
2023-02-27T02:54:27.892Z,980.43
2023-02-27T02:54:59.838Z,980.73
2023-02-27T02:55:32.117Z,980.73
2023-02-27T02:56:04.838Z,980.73
2023-02-27T02:56:35.789Z,980.73
2023-02-27T02:56:51.862Z,980.53
2023-02-27T02:57:35.679Z,980.53
2023-02-27T02:57:51.808Z,980.63
2023-02-27T02:58:35.904Z,980.63
2023-02-27T02:59:07.568Z,980.63
2023-02-27T02:59:39.686Z,980.63
2023-02-27T03:00:12.651Z,980.83
2023-02-27T03:00:43.590Z,980.83
2023-02-27T03:01:15.825Z,980.53
2023-02-27T03:01:47.675Z,980.73
2023-02-27T03:02:19.508Z,980.73
2023-02-27T03:02:51.581Z,980.63
2023-02-27T03:03:23.458Z,980.63
2023-02-27T03:03:55.503Z,981.04
2023-02-27T03:04:27.690Z,981.04
2023-02-27T03:04:59.431Z,980.73
2023-02-27T03:05:31.707Z,980.73
2023-02-27T03:06:04.121Z,980.73
2023-02-27T03:06:35.501Z,980.73
2023-02-27T03:07:07.491Z,980.73
2023-02-27T03:07:39.583Z,980.73
2023-02-27T03:08:11.388Z,980.83
2023-02-27T03:08:43.329Z,980.83
2023-02-27T03:09:15.516Z,980.93
2023-02-27T03:09:47.247Z,980.63
2023-02-27T03:10:19.541Z,980.63
2023-02-27T03:10:51.259Z,980.53
2023-02-27T03:11:23.253Z,980.53
2023-02-27T03:11:55.232Z,980.93
2023-02-27T03:12:27.362Z,980.93
2023-02-27T03:12:59.684Z,980.83
2023-02-27T03:13:31.160Z,980.83
2023-02-27T03:14:03.955Z,980.83
2023-02-27T03:14:34.882Z,980.83
2023-02-27T03:14:51.170Z,980.63
2023-02-27T03:15:35.365Z,980.63
2023-02-27T03:16:07.139Z,980.73
2023-02-27T03:16:39.056Z,980.73
2023-02-27T03:17:10.841Z,980.83
2023-02-27T03:17:42.811Z,980.83
2023-02-27T03:18:14.985Z,980.83
2023-02-27T03:18:46.917Z,980.83
2023-02-27T03:19:18.742Z,980.83
2023-02-27T03:19:50.817Z,980.93
2023-02-27T03:20:23.011Z,980.93
2023-02-27T03:20:54.950Z,980.73
2023-02-27T03:21:27.106Z,980.73
2023-02-27T03:21:58.685Z,980.73
2023-02-27T03:22:30.741Z,980.73
2023-02-27T03:23:03.274Z,980.83
2023-02-27T03:23:34.473Z,980.83
2023-02-27T03:24:06.706Z,980.73
2023-02-27T03:24:38.644Z,980.73
2023-02-27T03:25:10.795Z,980.83
2023-02-27T03:25:42.422Z,980.83
2023-02-27T03:26:14.506Z,980.53
2023-02-27T03:26:46.540Z,980.73
2023-02-27T03:27:18.635Z,980.73
2023-02-27T03:27:50.288Z,980.83
2023-02-27T03:28:06.730Z,980.83
2023-02-27T03:28:38.357Z,980.83
2023-02-27T03:29:22.476Z,980.73
2023-02-27T03:29:54.543Z,980.83
2023-02-27T03:30:26.993Z,980.83
2023-02-27T03:30:58.506Z,980.83
2023-02-27T03:31:30.772Z,980.83
2023-02-27T03:32:03.728Z,980.73
2023-02-27T03:32:34.430Z,980.73
2023-02-27T03:33:06.291Z,980.83
2023-02-27T03:33:38.370Z,980.83
2023-02-27T03:34:10.304Z,980.83
2023-02-27T03:34:42.272Z,980.83
2023-02-27T03:35:14.235Z,980.63
2023-02-27T03:35:46.338Z,980.83
2023-02-27T03:36:18.221Z,980.83
2023-02-27T03:36:49.881Z,980.83
2023-02-27T03:37:06.192Z,980.83
2023-02-27T03:37:49.975Z,980.83
2023-02-27T03:38:22.068Z,980.83
2023-02-27T03:38:54.011Z,980.93
2023-02-27T03:39:25.883Z,980.93
2023-02-27T03:39:57.995Z,980.93
2023-02-27T03:40:30.099Z,980.93
2023-02-27T03:41:02.113Z,980.83
2023-02-27T03:41:33.826Z,980.83
2023-02-27T03:41:49.860Z,980.83
2023-02-27T03:42:21.755Z,980.83
2023-02-27T03:42:37.997Z,980.83
2023-02-27T03:43:09.906Z,980.83
2023-02-27T03:43:41.839Z,980.83
2023-02-27T03:44:13.654Z,980.73
2023-02-27T03:44:45.928Z,980.83
2023-02-27T03:45:18.581Z,980.83
2023-02-27T03:45:49.556Z,980.83
2023-02-27T03:46:05.806Z,980.83
2023-02-27T03:46:37.670Z,980.83
2023-02-27T03:47:21.764Z,980.83
2023-02-27T03:47:53.700Z,981.14
2023-02-27T03:48:25.703Z,981.14
2023-02-27T03:48:57.788Z,980.93
2023-02-27T03:49:29.550Z,980.93
2023-02-27T03:50:02.078Z,981.04
2023-02-27T03:50:33.472Z,981.04
2023-02-27T03:51:05.657Z,980.83
2023-02-27T03:51:37.547Z,980.83
2023-02-27T03:52:09.526Z,980.93
2023-02-27T03:52:41.328Z,980.93
2023-02-27T03:53:13.317Z,980.93
2023-02-27T03:53:45.474Z,980.83
2023-02-27T03:54:17.487Z,980.83
2023-02-27T03:54:49.282Z,980.73
2023-02-27T03:55:06.019Z,980.73
2023-02-27T03:55:49.434Z,980.93
2023-02-27T03:56:21.296Z,980.93
2023-02-27T03:56:53.244Z,980.93
2023-02-27T03:57:25.195Z,980.93
2023-02-27T03:57:57.445Z,981.14
2023-02-27T03:58:29.190Z,981.14
2023-02-27T03:59:01.477Z,981.04
2023-02-27T03:59:33.011Z,981.04
2023-02-27T03:59:49.461Z,980.93
2023-02-27T04:00:21.526Z,980.93
2023-02-27T04:01:05.189Z,980.93
2023-02-27T04:01:37.070Z,980.93
2023-02-27T04:02:08.965Z,981.04
2023-02-27T04:02:41.028Z,981.04
2023-02-27T04:03:13.007Z,981.04
2023-02-27T04:03:45.114Z,981.04
2023-02-27T04:04:16.982Z,980.93
2023-02-27T04:04:49.053Z,980.83
2023-02-27T04:05:21.068Z,980.83
2023-02-27T04:05:52.965Z,981.14
2023-02-27T04:06:24.910Z,981.14
2023-02-27T04:06:57.062Z,980.83
2023-02-27T04:07:29.020Z,980.83
2023-02-27T04:08:00.922Z,980.93
2023-02-27T04:08:32.723Z,980.93
2023-02-27T04:09:05.148Z,981.34
2023-02-27T04:09:36.799Z,981.34
2023-02-27T04:10:09.195Z,981.14
2023-02-27T04:10:40.587Z,981.14
2023-02-27T04:11:12.649Z,980.93
2023-02-27T04:11:44.532Z,980.93
2023-02-27T04:12:16.872Z,981.14
2023-02-27T04:12:48.527Z,981.24
2023-02-27T04:13:04.940Z,981.24
2023-02-27T04:13:48.739Z,981.04
2023-02-27T04:14:20.456Z,981.04
2023-02-27T04:14:52.941Z,981.14
2023-02-27T04:15:24.857Z,981.14
2023-02-27T04:15:56.511Z,981.14
2023-02-27T04:16:28.787Z,981.14
2023-02-27T04:17:00.593Z,981.24
2023-02-27T04:17:32.348Z,981.24
2023-02-27T04:18:04.973Z,981.04
2023-02-27T04:18:36.546Z,981.04
2023-02-27T04:19:08.560Z,981.14
2023-02-27T04:19:40.228Z,981.14
2023-02-27T04:20:12.579Z,981.04
2023-02-27T04:20:44.162Z,981.04
2023-02-27T04:21:16.610Z,981.24
2023-02-27T04:21:48.274Z,981.04
2023-02-27T04:22:05.046Z,981.04
2023-02-27T04:22:36.482Z,981.04
2023-02-27T04:23:20.152Z,981.04
2023-02-27T04:23:52.105Z,981.14
2023-02-27T04:24:24.086Z,981.14
2023-02-27T04:24:56.164Z,981.14
2023-02-27T04:25:28.415Z,981.14
2023-02-27T04:26:00.121Z,981.04
2023-02-27T04:26:31.894Z,981.04
2023-02-27T04:26:48.276Z,981.14
2023-02-27T04:27:31.920Z,981.14
2023-02-27T04:28:04.631Z,981.24
2023-02-27T04:28:36.147Z,981.24
2023-02-27T04:29:08.006Z,981.04
2023-02-27T04:29:39.983Z,981.04
2023-02-27T04:30:13.085Z,981.24
2023-02-27T04:30:43.918Z,981.24
2023-02-27T04:31:16.195Z,980.93
2023-02-27T04:31:48.087Z,981.04
2023-02-27T04:32:04.797Z,981.04
2023-02-27T04:32:47.793Z,981.24
2023-02-27T04:33:19.625Z,981.24
2023-02-27T04:33:35.758Z,981.24
2023-02-27T04:34:07.736Z,981.24
2023-02-27T04:34:51.756Z,981.04
2023-02-27T04:35:24.115Z,981.04
2023-02-27T04:35:55.867Z,981.14
2023-02-27T04:36:27.876Z,981.14
2023-02-27T04:36:59.534Z,981.04
2023-02-27T04:37:31.569Z,981.04
2023-02-27T04:38:04.436Z,981.14
2023-02-27T04:38:35.555Z,981.14
2023-02-27T04:39:07.658Z,981.04
2023-02-27T04:39:39.670Z,981.04
2023-02-27T04:40:11.807Z,980.83
2023-02-27T04:40:43.370Z,980.83
2023-02-27T04:41:15.510Z,980.93
2023-02-27T04:41:47.588Z,981.04
2023-02-27T04:42:19.549Z,981.04
2023-02-27T04:42:51.416Z,981.14
2023-02-27T04:43:23.421Z,981.14
2023-02-27T04:43:55.562Z,981.41
2023-02-27T04:44:27.789Z,981.41
2023-02-27T04:44:59.388Z,981.24
2023-02-27T04:45:31.672Z,981.24
2023-02-27T04:46:04.057Z,981.24
2023-02-27T04:46:35.524Z,981.24
2023-02-27T04:47:07.095Z,980.93
2023-02-27T04:47:39.220Z,980.93
2023-02-27T04:48:11.320Z,981.14
2023-02-27T04:48:43.273Z,981.14
2023-02-27T04:49:15.016Z,981.14
2023-02-27T04:49:47.164Z,981.04
2023-02-27T04:50:19.312Z,981.04
2023-02-27T04:50:50.944Z,981.04
2023-02-27T04:51:22.805Z,981.04
2023-02-27T04:51:55.158Z,981.04
2023-02-27T04:52:27.043Z,981.04
2023-02-27T04:52:59.190Z,981.14
2023-02-27T04:53:30.867Z,981.14
2023-02-27T04:53:47.463Z,980.93
2023-02-27T04:54:18.873Z,980.93
2023-02-27T04:54:34.993Z,980.93
2023-02-27T04:55:07.252Z,981.34
2023-02-27T04:55:38.762Z,981.34
2023-02-27T04:56:10.821Z,981.14
2023-02-27T04:56:42.844Z,981.14
2023-02-27T04:57:14.783Z,981.14
2023-02-27T04:57:46.955Z,981.04
2023-02-27T04:58:03.113Z,981.04
2023-02-27T04:58:34.814Z,981.04
2023-02-27T04:59:18.623Z,981.24
2023-02-27T04:59:50.572Z,981.14
2023-02-27T05:00:22.930Z,981.14
2023-02-27T05:00:54.749Z,981.24
2023-02-27T05:01:27.058Z,981.24
2023-02-27T05:01:58.957Z,981.14
2023-02-27T05:02:30.624Z,981.14
2023-02-27T05:03:02.605Z,981.24
2023-02-27T05:03:34.471Z,981.24
2023-02-27T05:04:06.765Z,981.24
2023-02-27T05:04:38.378Z,981.24
2023-02-27T05:05:10.663Z,981.04
2023-02-27T05:05:42.418Z,981.04
2023-02-27T05:06:14.332Z,981.04
2023-02-27T05:06:46.641Z,981.34
2023-02-27T05:07:02.511Z,981.34
2023-02-27T05:07:46.486Z,981.14
2023-02-27T05:08:02.696Z,981.14
2023-02-27T05:08:46.361Z,981.04
2023-02-27T05:09:18.371Z,981.04
2023-02-27T05:09:50.193Z,980.93
2023-02-27T05:10:22.565Z,980.93
2023-02-27T05:10:54.127Z,981.04
2023-02-27T05:11:26.746Z,981.04
2023-02-27T05:11:58.268Z,981.04
2023-02-27T05:12:29.947Z,981.04
2023-02-27T05:13:02.429Z,981.34
2023-02-27T05:13:34.200Z,981.34
2023-02-27T05:14:05.940Z,981.04
2023-02-27T05:14:38.042Z,981.04
2023-02-27T05:15:10.964Z,981.04
2023-02-27T05:15:42.077Z,981.04
2023-02-27T05:16:13.984Z,981.24
2023-02-27T05:16:46.117Z,981.24
2023-02-27T05:17:02.136Z,981.24
2023-02-27T05:17:33.872Z,981.24
2023-02-27T05:18:17.970Z,981.24
2023-02-27T05:18:33.885Z,981.24
2023-02-27T05:19:17.777Z,981.24
2023-02-27T05:19:33.889Z,981.24
2023-02-27T05:20:18.082Z,981.04
2023-02-27T05:20:49.777Z,981.34
2023-02-27T05:21:21.570Z,981.34
2023-02-27T05:21:53.693Z,981.14
2023-02-27T05:22:25.815Z,981.14
2023-02-27T05:22:57.858Z,981.14
2023-02-27T05:23:29.523Z,981.14
2023-02-27T05:23:45.843Z,981.04
2023-02-27T05:24:29.637Z,981.04
2023-02-27T05:25:02.316Z,981.04
2023-02-27T05:25:33.596Z,981.04
2023-02-27T05:26:05.793Z,981.24
2023-02-27T05:26:37.657Z,981.24
2023-02-27T05:27:09.480Z,981.34
2023-02-27T05:27:41.613Z,981.34
2023-02-27T05:28:13.435Z,981.14
2023-02-27T05:28:45.434Z,981.24
2023-02-27T05:29:17.555Z,981.24
2023-02-27T05:29:49.476Z,981.24
2023-02-27T05:30:22.428Z,981.24
2023-02-27T05:30:53.475Z,981.34
2023-02-27T05:31:26.042Z,981.34
2023-02-27T05:31:57.627Z,981.24
2023-02-27T05:32:29.456Z,981.24
2023-02-27T05:33:01.348Z,981.24
2023-02-27T05:33:33.280Z,981.24
2023-02-27T05:34:05.773Z,981.24
2023-02-27T05:34:37.377Z,981.24
2023-02-27T05:35:09.457Z,981.41
2023-02-27T05:35:41.296Z,981.41
2023-02-27T05:36:13.169Z,981.51
2023-02-27T05:36:45.090Z,981.51
2023-02-27T05:37:01.493Z,981.34
2023-02-27T05:37:33.037Z,981.34
2023-02-27T05:38:17.233Z,981.34
2023-02-27T05:38:49.100Z,981.34
2023-02-27T05:39:20.781Z,981.34
2023-02-27T05:39:52.855Z,981.14
2023-02-27T05:40:25.362Z,981.14
2023-02-27T05:40:57.113Z,981.14
2023-02-27T05:41:29.293Z,981.14
2023-02-27T05:41:44.915Z,981.14
2023-02-27T05:42:29.017Z,981.14
2023-02-27T05:43:00.855Z,981.51
2023-02-27T05:43:32.795Z,981.51
2023-02-27T05:44:05.117Z,981.41
2023-02-27T05:44:36.865Z,981.41
2023-02-27T05:45:10.222Z,981.24
2023-02-27T05:45:40.908Z,981.24
2023-02-27T05:46:12.533Z,981.34
2023-02-27T05:46:44.663Z,981.34
2023-02-27T05:47:00.799Z,981.41
2023-02-27T05:47:44.689Z,981.41
2023-02-27T05:48:19.350Z,981.41
2023-02-27T05:48:48.566Z,981.51
2023-02-27T05:49:20.556Z,981.51
2023-02-27T05:49:52.680Z,981.51
2023-02-27T05:50:24.789Z,981.51
2023-02-27T05:50:57.727Z,981.41
2023-02-27T05:51:28.957Z,981.41
2023-02-27T05:51:44.623Z,981.41
2023-02-27T05:52:16.647Z,981.41
2023-02-27T05:52:32.573Z,981.41
2023-02-27T05:53:04.711Z,981.34
2023-02-27T05:53:36.266Z,981.34
2023-02-27T05:54:08.508Z,981.34
2023-02-27T05:54:40.419Z,981.34
2023-02-27T05:55:12.430Z,981.34
2023-02-27T05:55:44.443Z,981.34
2023-02-27T05:56:00.263Z,981.61
2023-02-27T05:56:32.215Z,981.61
2023-02-27T05:57:16.485Z,981.34
2023-02-27T05:57:48.172Z,981.41
2023-02-27T05:58:20.243Z,981.41
2023-02-27T05:58:52.379Z,981.41
2023-02-27T05:59:24.186Z,981.41
2023-02-27T05:59:56.442Z,981.24
2023-02-27T06:00:31.149Z,981.24
2023-02-27T06:01:00.128Z,981.34
2023-02-27T06:01:32.148Z,981.34
2023-02-27T06:02:04.400Z,981.41
2023-02-27T06:02:36.069Z,981.41
2023-02-27T06:03:08.282Z,981.34
2023-02-27T06:03:40.302Z,981.34
2023-02-27T06:04:11.920Z,981.24
2023-02-27T06:04:43.957Z,981.24
2023-02-27T06:05:16.357Z,981.61
2023-02-27T06:05:48.110Z,981.41
2023-02-27T06:06:19.785Z,981.41
2023-02-27T06:06:51.711Z,981.24
2023-02-27T06:07:23.776Z,981.24
2023-02-27T06:07:56.249Z,981.41
2023-02-27T06:08:27.717Z,981.41
2023-02-27T06:08:44.023Z,981.41
2023-02-27T06:09:15.986Z,981.41
2023-02-27T06:09:59.810Z,981.51
2023-02-27T06:10:32.039Z,981.51
2023-02-27T06:11:03.623Z,981.34
2023-02-27T06:11:35.652Z,981.34
2023-02-27T06:12:08.002Z,981.24
2023-02-27T06:12:39.702Z,981.24
2023-02-27T06:13:11.831Z,981.34
2023-02-27T06:13:43.742Z,981.34
2023-02-27T06:14:15.482Z,981.41
2023-02-27T06:14:47.911Z,981.61
2023-02-27T06:15:19.941Z,981.61
2023-02-27T06:15:51.457Z,981.24
2023-02-27T06:16:23.739Z,981.24
2023-02-27T06:16:56.051Z,981.61
2023-02-27T06:17:27.658Z,981.61
2023-02-27T06:17:43.707Z,981.61
2023-02-27T06:18:27.622Z,981.51
2023-02-27T06:18:59.602Z,981.51
2023-02-27T06:19:31.548Z,981.51
2023-02-27T06:20:04.613Z,981.61
2023-02-27T06:20:35.537Z,981.61
2023-02-27T06:21:07.679Z,981.51
2023-02-27T06:21:39.433Z,981.51
2023-02-27T06:22:11.240Z,981.41
2023-02-27T06:22:43.327Z,981.41
2023-02-27T06:22:59.661Z,981.51
2023-02-27T06:23:43.374Z,981.51
2023-02-27T06:24:15.515Z,981.51
2023-02-27T06:24:47.323Z,981.34
2023-02-27T06:25:19.447Z,981.34
2023-02-27T06:25:51.267Z,981.41
2023-02-27T06:26:23.315Z,981.41
2023-02-27T06:26:55.217Z,981.34
2023-02-27T06:27:27.349Z,981.34
2023-02-27T06:27:43.368Z,981.34
2023-02-27T06:28:15.106Z,981.34
2023-02-27T06:28:31.133Z,981.34
2023-02-27T06:29:03.623Z,981.41
2023-02-27T06:29:35.124Z,981.41
2023-02-27T06:30:08.436Z,981.51
2023-02-27T06:30:39.374Z,981.51
2023-02-27T06:31:10.958Z,981.51
2023-02-27T06:31:43.171Z,981.51
2023-02-27T06:31:59.087Z,981.41